sensor_id;sensor_type;location;lat;lon;timestamp;temperature;humidity
40059;SHT31;25763;49.972;8.568;2023-02-11T00:02:13;1.59;80.18
40059;SHT31;25763;49.972;8.568;2023-02-11T00:04:39;1.64;80.11
40059;SHT31;25763;49.972;8.568;2023-02-11T00:07:04;1.62;79.86
40059;SHT31;25763;49.972;8.568;2023-02-11T00:09:29;1.64;80.08
40059;SHT31;25763;49.972;8.568;2023-02-11T00:11:55;1.63;80.35
40059;SHT31;25763;49.972;8.568;2023-02-11T00:14:20;1.63;80.76
40059;SHT31;25763;49.972;8.568;2023-02-11T00:16:45;1.63;81.03
40059;SHT31;25763;49.972;8.568;2023-02-11T00:19:11;1.64;81.03
40059;SHT31;25763;49.972;8.568;2023-02-11T00:21:36;1.66;81.01
40059;SHT31;25763;49.972;8.568;2023-02-11T00:24:02;1.70;80.58
40059;SHT31;25763;49.972;8.568;2023-02-11T00:26:30;1.70;80.26
40059;SHT31;25763;49.972;8.568;2023-02-11T00:28:56;1.69;80.27
40059;SHT31;25763;49.972;8.568;2023-02-11T00:31:22;1.70;80.54
40059;SHT31;25763;49.972;8.568;2023-02-11T00:33:48;1.70;80.70
40059;SHT31;25763;49.972;8.568;2023-02-11T00:36:16;1.69;80.62
40059;SHT31;25763;49.972;8.568;2023-02-11T00:38:44;1.71;80.55
40059;SHT31;25763;49.972;8.568;2023-02-11T00:41:10;1.69;80.59
40059;SHT31;25763;49.972;8.568;2023-02-11T00:43:37;1.74;80.61
40059;SHT31;25763;49.972;8.568;2023-02-11T00:46:03;1.73;80.74
40059;SHT31;25763;49.972;8.568;2023-02-11T00:48:28;1.78;80.61
40059;SHT31;25763;49.972;8.568;2023-02-11T00:50:54;1.80;80.57
40059;SHT31;25763;49.972;8.568;2023-02-11T00:53:19;1.80;80.80
40059;SHT31;25763;49.972;8.568;2023-02-11T00:55:44;1.87;80.53
40059;SHT31;25763;49.972;8.568;2023-02-11T00:58:10;1.90;80.54
40059;SHT31;25763;49.972;8.568;2023-02-11T01:00:35;1.87;80.75
40059;SHT31;25763;49.972;8.568;2023-02-11T01:03:01;1.88;80.72
40059;SHT31;25763;49.972;8.568;2023-02-11T01:05:27;1.87;80.78
40059;SHT31;25763;49.972;8.568;2023-02-11T01:07:53;1.93;80.76
40059;SHT31;25763;49.972;8.568;2023-02-11T01:10:18;1.94;80.71
40059;SHT31;25763;49.972;8.568;2023-02-11T01:12:44;1.95;80.58
40059;SHT31;25763;49.972;8.568;2023-02-11T01:15:13;1.90;80.82
40059;SHT31;25763;49.972;8.568;2023-02-11T01:17:39;1.93;80.96
40059;SHT31;25763;49.972;8.568;2023-02-11T01:20:06;1.97;81.04
40059;SHT31;25763;49.972;8.568;2023-02-11T01:22:32;2.04;80.84
40059;SHT31;25763;49.972;8.568;2023-02-11T01:24:59;2.01;80.83
40059;SHT31;25763;49.972;8.568;2023-02-11T01:27:24;1.97;80.86
40059;SHT31;25763;49.972;8.568;2023-02-11T01:29:50;2.01;80.94
40059;SHT31;25763;49.972;8.568;2023-02-11T01:32:16;2.08;80.79
40059;SHT31;25763;49.972;8.568;2023-02-11T01:34:42;2.05;80.77
40059;SHT31;25763;49.972;8.568;2023-02-11T01:37:07;2.05;80.83
40059;SHT31;25763;49.972;8.568;2023-02-11T01:39:33;2.02;81.06
40059;SHT31;25763;49.972;8.568;2023-02-11T01:41:59;2.05;81.03
40059;SHT31;25763;49.972;8.568;2023-02-11T01:44:42;2.04;81.00
40059;SHT31;25763;49.972;8.568;2023-02-11T01:47:08;2.05;81.03
40059;SHT31;25763;49.972;8.568;2023-02-11T01:49:38;2.05;80.98
40059;SHT31;25763;49.972;8.568;2023-02-11T01:52:09;2.08;81.04
40059;SHT31;25763;49.972;8.568;2023-02-11T01:54:40;2.09;80.99
40059;SHT31;25763;49.972;8.568;2023-02-11T01:57:28;2.12;80.88
40059;SHT31;25763;49.972;8.568;2023-02-11T02:00:06;2.12;80.88
40059;SHT31;25763;49.972;8.568;2023-02-11T02:08:13;2.12;81.35
40059;SHT31;25763;49.972;8.568;2023-02-11T02:10:47;2.08;81.68
40059;SHT31;25763;49.972;8.568;2023-02-11T02:13:13;2.09;81.76
40059;SHT31;25763;49.972;8.568;2023-02-11T02:15:46;2.12;81.88
40059;SHT31;25763;49.972;8.568;2023-02-11T02:21:28;2.08;82.08
40059;SHT31;25763;49.972;8.568;2023-02-11T02:24:16;2.16;82.08
40059;SHT31;25763;49.972;8.568;2023-02-11T02:27:03;2.08;82.12
40059;SHT31;25763;49.972;8.568;2023-02-11T02:30:38;2.13;82.14
40059;SHT31;25763;49.972;8.568;2023-02-11T02:35:35;2.13;82.08
40059;SHT31;25763;49.972;8.568;2023-02-11T02:38:10;2.18;81.96
40059;SHT31;25763;49.972;8.568;2023-02-11T02:40:44;2.19;81.91
40059;SHT31;25763;49.972;8.568;2023-02-11T02:43:12;2.22;81.84
40059;SHT31;25763;49.972;8.568;2023-02-11T02:45:38;2.22;81.83
40059;SHT31;25763;49.972;8.568;2023-02-11T02:48:03;2.23;81.72
40059;SHT31;25763;49.972;8.568;2023-02-11T02:50:31;2.28;81.64
40059;SHT31;25763;49.972;8.568;2023-02-11T02:56:23;2.37;81.46
40059;SHT31;25763;49.972;8.568;2023-02-11T02:59:02;2.35;81.42
40059;SHT31;25763;49.972;8.568;2023-02-11T03:04:21;2.35;81.34
40059;SHT31;25763;49.972;8.568;2023-02-11T03:11:49;2.45;81.08
40059;SHT31;25763;49.972;8.568;2023-02-11T03:14:16;2.46;81.10
40059;SHT31;25763;49.972;8.568;2023-02-11T03:16:43;2.47;81.13
40059;SHT31;25763;49.972;8.568;2023-02-11T03:21:42;2.54;80.81
40059;SHT31;25763;49.972;8.568;2023-02-11T03:24:15;2.49;80.63
40059;SHT31;25763;49.972;8.568;2023-02-11T03:26:49;2.43;80.76
40059;SHT31;25763;49.972;8.568;2023-02-11T03:29:21;2.40;80.75
40059;SHT31;25763;49.972;8.568;2023-02-11T03:34:45;2.37;80.82
40059;SHT31;25763;49.972;8.568;2023-02-11T03:40:02;2.37;80.79
40059;SHT31;25763;49.972;8.568;2023-02-11T03:42:52;2.33;80.73
40059;SHT31;25763;49.972;8.568;2023-02-11T03:45:21;2.30;80.75
40059;SHT31;25763;49.972;8.568;2023-02-11T03:47:50;2.28;80.85
40059;SHT31;25763;49.972;8.568;2023-02-11T03:50:18;2.32;80.75
40059;SHT31;25763;49.972;8.568;2023-02-11T03:52:46;2.32;80.78
40059;SHT31;25763;49.972;8.568;2023-02-11T03:55:15;2.32;80.95
40059;SHT31;25763;49.972;8.568;2023-02-11T03:57:41;2.32;80.75
40059;SHT31;25763;49.972;8.568;2023-02-11T04:00:08;2.29;80.76
40059;SHT31;25763;49.972;8.568;2023-02-11T04:02:36;2.25;81.00
40059;SHT31;25763;49.972;8.568;2023-02-11T04:05:05;2.18;80.97
40059;SHT31;25763;49.972;8.568;2023-02-11T04:07:32;2.21;81.00
40059;SHT31;25763;49.972;8.568;2023-02-11T04:09:57;2.19;81.07
40059;SHT31;25763;49.972;8.568;2023-02-11T04:12:23;2.18;81.09
40059;SHT31;25763;49.972;8.568;2023-02-11T04:14:48;2.19;81.12
40059;SHT31;25763;49.972;8.568;2023-02-11T04:17:14;2.19;81.12
40059;SHT31;25763;49.972;8.568;2023-02-11T04:19:39;2.22;81.02
40059;SHT31;25763;49.972;8.568;2023-02-11T04:22:05;2.26;80.89
40059;SHT31;25763;49.972;8.568;2023-02-11T04:24:31;2.25;80.85
40059;SHT31;25763;49.972;8.568;2023-02-11T04:26:56;2.32;80.84
40059;SHT31;25763;49.972;8.568;2023-02-11T04:29:22;2.33;80.75
40059;SHT31;25763;49.972;8.568;2023-02-11T04:31:48;2.30;80.77
40059;SHT31;25763;49.972;8.568;2023-02-11T04:34:13;2.36;80.78
40059;SHT31;25763;49.972;8.568;2023-02-11T04:36:39;2.35;80.78
40059;SHT31;25763;49.972;8.568;2023-02-11T04:39:04;2.39;80.65
40059;SHT31;25763;49.972;8.568;2023-02-11T04:41:30;2.42;80.50
40059;SHT31;25763;49.972;8.568;2023-02-11T04:43:55;2.40;80.44
40059;SHT31;25763;49.972;8.568;2023-02-11T04:46:50;2.43;80.52
40059;SHT31;25763;49.972;8.568;2023-02-11T04:49:21;2.45;80.37
40059;SHT31;25763;49.972;8.568;2023-02-11T04:51:46;2.47;80.18
40059;SHT31;25763;49.972;8.568;2023-02-11T04:54:12;2.46;80.21
40059;SHT31;25763;49.972;8.568;2023-02-11T04:56:38;2.52;80.21
40059;SHT31;25763;49.972;8.568;2023-02-11T04:59:04;2.49;80.08
40059;SHT31;25763;49.972;8.568;2023-02-11T05:01:29;2.46;80.15
40059;SHT31;25763;49.972;8.568;2023-02-11T05:03:55;2.46;80.15
40059;SHT31;25763;49.972;8.568;2023-02-11T05:06:20;2.49;80.08
40059;SHT31;25763;49.972;8.568;2023-02-11T05:08:46;2.45;80.26
40059;SHT31;25763;49.972;8.568;2023-02-11T05:11:18;2.39;80.34
40059;SHT31;25763;49.972;8.568;2023-02-11T05:13:44;2.39;80.52
40059;SHT31;25763;49.972;8.568;2023-02-11T05:16:10;2.37;80.65
40059;SHT31;25763;49.972;8.568;2023-02-11T05:18:40;2.36;80.63
40059;SHT31;25763;49.972;8.568;2023-02-11T05:21:07;2.30;80.69
40059;SHT31;25763;49.972;8.568;2023-02-11T05:23:33;2.35;80.71
40059;SHT31;25763;49.972;8.568;2023-02-11T05:25:59;2.26;80.84
40059;SHT31;25763;49.972;8.568;2023-02-11T05:28:24;2.28;80.81
40059;SHT31;25763;49.972;8.568;2023-02-11T05:30:50;2.30;80.88
40059;SHT31;25763;49.972;8.568;2023-02-11T05:33:15;2.29;80.81
40059;SHT31;25763;49.972;8.568;2023-02-11T05:35:40;2.30;80.71
40059;SHT31;25763;49.972;8.568;2023-02-11T05:38:06;2.33;80.69
40059;SHT31;25763;49.972;8.568;2023-02-11T05:40:31;2.32;80.62
40059;SHT31;25763;49.972;8.568;2023-02-11T05:42:56;2.33;80.57
40059;SHT31;25763;49.972;8.568;2023-02-11T05:45:22;2.36;80.55
40059;SHT31;25763;49.972;8.568;2023-02-11T05:47:47;2.33;80.67
40059;SHT31;25763;49.972;8.568;2023-02-11T05:50:12;2.37;80.67
40059;SHT31;25763;49.972;8.568;2023-02-11T05:52:38;2.37;80.59
40059;SHT31;25763;49.972;8.568;2023-02-11T05:55:04;2.37;80.54
40059;SHT31;25763;49.972;8.568;2023-02-11T05:57:29;2.42;80.60
40059;SHT31;25763;49.972;8.568;2023-02-11T05:59:55;2.37;80.64
40059;SHT31;25763;49.972;8.568;2023-02-11T06:02:20;2.36;80.67
40059;SHT31;25763;49.972;8.568;2023-02-11T06:04:45;2.39;80.67
40059;SHT31;25763;49.972;8.568;2023-02-11T06:07:11;2.37;80.67
40059;SHT31;25763;49.972;8.568;2023-02-11T06:09:36;2.37;80.63
40059;SHT31;25763;49.972;8.568;2023-02-11T06:12:02;2.39;80.72
40059;SHT31;25763;49.972;8.568;2023-02-11T06:14:27;2.36;80.69
40059;SHT31;25763;49.972;8.568;2023-02-11T06:16:52;2.42;80.65
40059;SHT31;25763;49.972;8.568;2023-02-11T06:19:18;2.42;80.59
40059;SHT31;25763;49.972;8.568;2023-02-11T06:21:43;2.40;80.50
40059;SHT31;25763;49.972;8.568;2023-02-11T06:24:08;2.40;80.58
40059;SHT31;25763;49.972;8.568;2023-02-11T06:26:34;2.39;80.47
40059;SHT31;25763;49.972;8.568;2023-02-11T06:28:59;2.42;80.45
40059;SHT31;25763;49.972;8.568;2023-02-11T06:31:25;2.46;80.29
40059;SHT31;25763;49.972;8.568;2023-02-11T06:33:51;2.43;80.31
40059;SHT31;25763;49.972;8.568;2023-02-11T06:36:20;2.49;80.24
40059;SHT31;25763;49.972;8.568;2023-02-11T06:38:46;2.46;80.17
40059;SHT31;25763;49.972;8.568;2023-02-11T06:41:13;2.47;80.25
40059;SHT31;25763;49.972;8.568;2023-02-11T06:43:40;2.49;80.22
40059;SHT31;25763;49.972;8.568;2023-02-11T06:46:06;2.46;80.18
40059;SHT31;25763;49.972;8.568;2023-02-11T06:48:32;2.40;80.27
40059;SHT31;25763;49.972;8.568;2023-02-11T06:51:02;2.45;80.27
40059;SHT31;25763;49.972;8.568;2023-02-11T06:53:29;2.42;80.33
40059;SHT31;25763;49.972;8.568;2023-02-11T06:55:55;2.43;80.23
40059;SHT31;25763;49.972;8.568;2023-02-11T06:58:20;2.43;80.23
40059;SHT31;25763;49.972;8.568;2023-02-11T07:00:45;2.45;80.07
40059;SHT31;25763;49.972;8.568;2023-02-11T07:03:11;2.45;80.08
40059;SHT31;25763;49.972;8.568;2023-02-11T07:05:36;2.42;80.16
40059;SHT31;25763;49.972;8.568;2023-02-11T07:08:03;2.42;80.21
40059;SHT31;25763;49.972;8.568;2023-02-11T07:10:29;2.42;80.21
40059;SHT31;25763;49.972;8.568;2023-02-11T07:12:54;2.47;80.22
40059;SHT31;25763;49.972;8.568;2023-02-11T07:15:19;2.42;80.05
40059;SHT31;25763;49.972;8.568;2023-02-11T07:17:45;2.43;80.02
40059;SHT31;25763;49.972;8.568;2023-02-11T07:20:10;2.45;80.00
40059;SHT31;25763;49.972;8.568;2023-02-11T07:22:38;2.50;79.91
40059;SHT31;25763;49.972;8.568;2023-02-11T07:25:04;2.49;79.89
40059;SHT31;25763;49.972;8.568;2023-02-11T07:27:30;2.47;79.84
40059;SHT31;25763;49.972;8.568;2023-02-11T07:29:55;2.54;79.76
40059;SHT31;25763;49.972;8.568;2023-02-11T07:32:20;2.60;79.63
40059;SHT31;25763;49.972;8.568;2023-02-11T07:34:46;2.60;79.70
40059;SHT31;25763;49.972;8.568;2023-02-11T07:37:12;2.57;79.56
40059;SHT31;25763;49.972;8.568;2023-02-11T07:39:38;2.56;79.64
40059;SHT31;25763;49.972;8.568;2023-02-11T07:42:03;2.61;79.60
40059;SHT31;25763;49.972;8.568;2023-02-11T07:44:29;2.53;79.63
40059;SHT31;25763;49.972;8.568;2023-02-11T07:46:54;2.54;79.64
40059;SHT31;25763;49.972;8.568;2023-02-11T07:49:19;2.60;79.51
40059;SHT31;25763;49.972;8.568;2023-02-11T07:51:45;2.61;79.46
40059;SHT31;25763;49.972;8.568;2023-02-11T07:54:11;2.65;79.18
40059;SHT31;25763;49.972;8.568;2023-02-11T07:56:36;2.77;79.12
40059;SHT31;25763;49.972;8.568;2023-02-11T07:59:02;2.88;79.01
40059;SHT31;25763;49.972;8.568;2023-02-11T08:01:28;2.98;78.69
40059;SHT31;25763;49.972;8.568;2023-02-11T08:03:55;3.09;78.31
40059;SHT31;25763;49.972;8.568;2023-02-11T08:06:22;3.10;78.05
40059;SHT31;25763;49.972;8.568;2023-02-11T08:08:49;3.15;77.81
40059;SHT31;25763;49.972;8.568;2023-02-11T08:11:34;3.24;77.72
40059;SHT31;25763;49.972;8.568;2023-02-11T08:13:59;3.24;77.59
40059;SHT31;25763;49.972;8.568;2023-02-11T08:16:30;3.24;77.56
40059;SHT31;25763;49.972;8.568;2023-02-11T08:18:57;3.34;77.48
40059;SHT31;25763;49.972;8.568;2023-02-11T08:21:22;3.51;77.26
40059;SHT31;25763;49.972;8.568;2023-02-11T08:23:48;3.51;76.75
40059;SHT31;25763;49.972;8.568;2023-02-11T08:26:17;3.75;76.68
40059;SHT31;25763;49.972;8.568;2023-02-11T08:28:43;3.87;76.05
40059;SHT31;25763;49.972;8.568;2023-02-11T08:31:21;3.97;75.61
40059;SHT31;25763;49.972;8.568;2023-02-11T08:33:47;3.82;75.89
40059;SHT31;25763;49.972;8.568;2023-02-11T08:36:18;3.86;75.88
40059;SHT31;25763;49.972;8.568;2023-02-11T08:38:45;3.74;76.11
40059;SHT31;25763;49.972;8.568;2023-02-11T08:41:11;3.82;76.13
40059;SHT31;25763;49.972;8.568;2023-02-11T08:43:39;3.82;75.98
40059;SHT31;25763;49.972;8.568;2023-02-11T08:46:06;3.87;76.13
40059;SHT31;25763;49.972;8.568;2023-02-11T08:48:31;3.93;75.78
40059;SHT31;25763;49.972;8.568;2023-02-11T08:50:57;4.07;75.54
40059;SHT31;25763;49.972;8.568;2023-02-11T08:53:23;4.20;75.43
40059;SHT31;25763;49.972;8.568;2023-02-11T08:55:49;4.25;75.17
40059;SHT31;25763;49.972;8.568;2023-02-11T08:58:15;4.32;74.98
40059;SHT31;25763;49.972;8.568;2023-02-11T09:00:41;4.31;75.09
40059;SHT31;25763;49.972;8.568;2023-02-11T09:03:10;4.49;74.83
40059;SHT31;25763;49.972;8.568;2023-02-11T09:05:40;4.68;74.93
40059;SHT31;25763;49.972;8.568;2023-02-11T09:08:05;4.72;74.38
40059;SHT31;25763;49.972;8.568;2023-02-11T09:10:31;4.81;74.31
40059;SHT31;25763;49.972;8.568;2023-02-11T09:12:56;4.86;73.69
40059;SHT31;25763;49.972;8.568;2023-02-11T09:15:21;4.91;73.92
40059;SHT31;25763;49.972;8.568;2023-02-11T09:17:47;4.91;73.61
40059;SHT31;25763;49.972;8.568;2023-02-11T09:20:12;4.91;73.60
40059;SHT31;25763;49.972;8.568;2023-02-11T09:22:38;4.75;73.78
40059;SHT31;25763;49.972;8.568;2023-02-11T09:25:03;4.73;74.04
40059;SHT31;25763;49.972;8.568;2023-02-11T09:27:28;4.87;74.15
40059;SHT31;25763;49.972;8.568;2023-02-11T09:29:54;4.97;73.83
40059;SHT31;25763;49.972;8.568;2023-02-11T09:32:19;4.98;73.57
40059;SHT31;25763;49.972;8.568;2023-02-11T09:34:44;5.18;73.58
40059;SHT31;25763;49.972;8.568;2023-02-11T09:37:10;5.21;73.28
40059;SHT31;25763;49.972;8.568;2023-02-11T09:39:35;5.29;73.42
40059;SHT31;25763;49.972;8.568;2023-02-11T09:42:18;5.39;73.14
40059;SHT31;25763;49.972;8.568;2023-02-11T09:44:45;5.47;72.88
40059;SHT31;25763;49.972;8.568;2023-02-11T09:47:27;5.38;72.83
40059;SHT31;25763;49.972;8.568;2023-02-11T09:49:59;5.39;72.97
40059;SHT31;25763;49.972;8.568;2023-02-11T09:55:26;5.46;73.09
40059;SHT31;25763;49.972;8.568;2023-02-11T09:57:52;5.54;73.04
40059;SHT31;25763;49.972;8.568;2023-02-11T10:03:13;5.82;73.06
40059;SHT31;25763;49.972;8.568;2023-02-11T10:10:50;6.05;72.31
40059;SHT31;25763;49.972;8.568;2023-02-11T10:18:57;6.24;71.85
40059;SHT31;25763;49.972;8.568;2023-02-11T10:21:33;6.40;71.69
40059;SHT31;25763;49.972;8.568;2023-02-11T10:24:03;6.45;70.98
40059;SHT31;25763;49.972;8.568;2023-02-11T10:26:35;6.54;71.45
40059;SHT31;25763;49.972;8.568;2023-02-11T10:29:12;6.69;71.16
40059;SHT31;25763;49.972;8.568;2023-02-11T10:31:43;6.69;71.05
40059;SHT31;25763;49.972;8.568;2023-02-11T10:34:11;6.51;71.30
40059;SHT31;25763;49.972;8.568;2023-02-11T10:36:39;6.36;71.85
40059;SHT31;25763;49.972;8.568;2023-02-11T10:39:22;6.26;72.35
40059;SHT31;25763;49.972;8.568;2023-02-11T10:41:52;6.34;72.49
40059;SHT31;25763;49.972;8.568;2023-02-11T10:44:26;6.50;72.00
40059;SHT31;25763;49.972;8.568;2023-02-11T10:46:54;6.64;71.97
40059;SHT31;25763;49.972;8.568;2023-02-11T10:49:53;6.79;71.74
40059;SHT31;25763;49.972;8.568;2023-02-11T10:52:23;6.79;71.58
40059;SHT31;25763;49.972;8.568;2023-02-11T10:55:13;6.82;71.42
40059;SHT31;25763;49.972;8.568;2023-02-11T10:57:42;6.58;71.77
40059;SHT31;25763;49.972;8.568;2023-02-11T11:02:42;6.52;72.39
40059;SHT31;25763;49.972;8.568;2023-02-11T11:05:16;6.58;72.07
40059;SHT31;25763;49.972;8.568;2023-02-11T11:08:12;6.69;72.23
40059;SHT31;25763;49.972;8.568;2023-02-11T11:10:43;6.74;71.96
40059;SHT31;25763;49.972;8.568;2023-02-11T11:13:31;6.85;71.76
40059;SHT31;25763;49.972;8.568;2023-02-11T11:16:14;6.99;71.47
40059;SHT31;25763;49.972;8.568;2023-02-11T11:18:41;7.20;70.98
40059;SHT31;25763;49.972;8.568;2023-02-11T11:21:20;7.34;70.72
40059;SHT31;25763;49.972;8.568;2023-02-11T11:23:53;7.31;70.31
40059;SHT31;25763;49.972;8.568;2023-02-11T11:26:19;7.23;70.51
40059;SHT31;25763;49.972;8.568;2023-02-11T11:28:52;7.23;70.49
40059;SHT31;25763;49.972;8.568;2023-02-11T11:31:56;7.24;70.89
40059;SHT31;25763;49.972;8.568;2023-02-11T11:37:12;7.13;71.56
40059;SHT31;25763;49.972;8.568;2023-02-11T11:39:38;7.36;71.63
40059;SHT31;25763;49.972;8.568;2023-02-11T11:42:23;7.42;71.10
40059;SHT31;25763;49.972;8.568;2023-02-11T11:45:32;7.41;71.07
40059;SHT31;25763;49.972;8.568;2023-02-11T11:51:05;7.14;73.00
40059;SHT31;25763;49.972;8.568;2023-02-11T11:53:52;7.27;73.29
40059;SHT31;25763;49.972;8.568;2023-02-11T11:56:21;7.24;73.64
40059;SHT31;25763;49.972;8.568;2023-02-11T11:58:47;7.21;73.65
40059;SHT31;25763;49.972;8.568;2023-02-11T12:15:31;7.58;72.79
40059;SHT31;25763;49.972;8.568;2023-02-11T12:26:23;7.79;72.36
40059;SHT31;25763;49.972;8.568;2023-02-11T12:29:15;7.82;72.41
40059;SHT31;25763;49.972;8.568;2023-02-11T12:31:54;7.70;72.53
40059;SHT31;25763;49.972;8.568;2023-02-11T12:34:32;7.60;72.85
40059;SHT31;25763;49.972;8.568;2023-02-11T12:39:55;7.60;73.12
40059;SHT31;25763;49.972;8.568;2023-02-11T12:50:55;7.75;72.91
40059;SHT31;25763;49.972;8.568;2023-02-11T12:53:28;7.63;72.94
40059;SHT31;25763;49.972;8.568;2023-02-11T12:56:04;7.55;73.24
40059;SHT31;25763;49.972;8.568;2023-02-11T12:58:33;7.58;73.25
40059;SHT31;25763;49.972;8.568;2023-02-11T13:01:04;7.63;73.29
40059;SHT31;25763;49.972;8.568;2023-02-11T13:03:38;7.65;73.01
40059;SHT31;25763;49.972;8.568;2023-02-11T13:06:11;7.71;73.22
40059;SHT31;25763;49.972;8.568;2023-02-11T13:08:45;7.80;73.08
40059;SHT31;25763;49.972;8.568;2023-02-11T13:11:36;7.89;73.16
40059;SHT31;25763;49.972;8.568;2023-02-11T13:16:45;8.07;72.63
40059;SHT31;25763;49.972;8.568;2023-02-11T13:27:37;8.08;72.63
40059;SHT31;25763;49.972;8.568;2023-02-11T13:38:01;8.32;72.44
40059;SHT31;25763;49.972;8.568;2023-02-11T13:40:37;8.32;72.31
40059;SHT31;25763;49.972;8.568;2023-02-11T13:43:05;8.35;72.50
40059;SHT31;25763;49.972;8.568;2023-02-11T13:45:38;8.29;72.46
40059;SHT31;25763;49.972;8.568;2023-02-11T13:48:16;8.17;72.89
40059;SHT31;25763;49.972;8.568;2023-02-11T13:50:48;8.14;73.31
40059;SHT31;25763;49.972;8.568;2023-02-11T13:53:15;8.11;73.38
40059;SHT31;25763;49.972;8.568;2023-02-11T13:55:44;8.11;73.33
40059;SHT31;25763;49.972;8.568;2023-02-11T14:09:31;8.18;73.71
40059;SHT31;25763;49.972;8.568;2023-02-11T14:12:24;8.08;74.18
40059;SHT31;25763;49.972;8.568;2023-02-11T14:17:37;7.93;74.50
40059;SHT31;25763;49.972;8.568;2023-02-11T14:20:35;7.89;74.36
40059;SHT31;25763;49.972;8.568;2023-02-11T14:23:01;7.82;74.54
40059;SHT31;25763;49.972;8.568;2023-02-11T14:25:29;7.86;74.54
40059;SHT31;25763;49.972;8.568;2023-02-11T14:28:08;7.80;74.48
40059;SHT31;25763;49.972;8.568;2023-02-11T14:30:38;7.73;74.80
40059;SHT31;25763;49.972;8.568;2023-02-11T14:41:17;7.62;75.34
40059;SHT31;25763;49.972;8.568;2023-02-11T14:43:50;7.70;75.30
40059;SHT31;25763;49.972;8.568;2023-02-11T14:46:18;7.67;75.36
40059;SHT31;25763;49.972;8.568;2023-02-11T14:48:46;7.70;75.38
40059;SHT31;25763;49.972;8.568;2023-02-11T14:51:18;7.63;75.63
40059;SHT31;25763;49.972;8.568;2023-02-11T14:53:50;7.58;75.95
40059;SHT31;25763;49.972;8.568;2023-02-11T14:56:24;7.58;76.04
40059;SHT31;25763;49.972;8.568;2023-02-11T14:58:56;7.59;76.13
40059;SHT31;25763;49.972;8.568;2023-02-11T15:01:48;7.59;76.17
40059;SHT31;25763;49.972;8.568;2023-02-11T15:04:23;7.55;76.39
40059;SHT31;25763;49.972;8.568;2023-02-11T15:06:49;7.60;76.32
40059;SHT31;25763;49.972;8.568;2023-02-11T15:11:45;7.69;76.27
40059;SHT31;25763;49.972;8.568;2023-02-11T15:14:26;7.65;76.30
40059;SHT31;25763;49.972;8.568;2023-02-11T15:16:54;7.65;76.34
40059;SHT31;25763;49.972;8.568;2023-02-11T15:19:24;7.67;76.26
40059;SHT31;25763;49.972;8.568;2023-02-11T15:21:52;7.70;76.20
40059;SHT31;25763;49.972;8.568;2023-02-11T15:24:27;7.67;76.22
40059;SHT31;25763;49.972;8.568;2023-02-11T15:27:09;7.65;76.23
40059;SHT31;25763;49.972;8.568;2023-02-11T15:29:45;7.60;76.25
40059;SHT31;25763;49.972;8.568;2023-02-11T15:34:39;7.60;76.24
40059;SHT31;25763;49.972;8.568;2023-02-11T15:37:06;7.60;76.45
40059;SHT31;25763;49.972;8.568;2023-02-11T15:39:35;7.60;76.33
40059;SHT31;25763;49.972;8.568;2023-02-11T15:42:25;7.59;76.31
40059;SHT31;25763;49.972;8.568;2023-02-11T15:47:47;7.60;76.20
40059;SHT31;25763;49.972;8.568;2023-02-11T15:50:25;7.56;76.23
40059;SHT31;25763;49.972;8.568;2023-02-11T15:52:51;7.55;76.26
40059;SHT31;25763;49.972;8.568;2023-02-11T15:55:17;7.53;76.21
40059;SHT31;25763;49.972;8.568;2023-02-11T15:57:46;7.53;76.19
40059;SHT31;25763;49.972;8.568;2023-02-11T16:00:15;7.39;76.60
40059;SHT31;25763;49.972;8.568;2023-02-11T16:02:44;7.35;76.67
40059;SHT31;25763;49.972;8.568;2023-02-11T16:05:34;7.32;76.53
40059;SHT31;25763;49.972;8.568;2023-02-11T16:08:32;7.27;76.55
40059;SHT31;25763;49.972;8.568;2023-02-11T16:10:59;7.21;76.59
40059;SHT31;25763;49.972;8.568;2023-02-11T16:13:29;7.23;76.55
40059;SHT31;25763;49.972;8.568;2023-02-11T16:16:17;7.17;76.57
40059;SHT31;25763;49.972;8.568;2023-02-11T16:18:49;7.16;76.57
40059;SHT31;25763;49.972;8.568;2023-02-11T16:21:16;7.16;76.61
40059;SHT31;25763;49.972;8.568;2023-02-11T16:23:49;7.13;76.64
40059;SHT31;25763;49.972;8.568;2023-02-11T16:26:23;7.14;76.66
40059;SHT31;25763;49.972;8.568;2023-02-11T16:28:50;7.13;76.77
40059;SHT31;25763;49.972;8.568;2023-02-11T16:31:16;7.14;76.78
40059;SHT31;25763;49.972;8.568;2023-02-11T16:33:41;7.13;76.80
40059;SHT31;25763;49.972;8.568;2023-02-11T16:36:14;7.13;76.81
40059;SHT31;25763;49.972;8.568;2023-02-11T16:38:42;7.13;76.88
40059;SHT31;25763;49.972;8.568;2023-02-11T16:41:07;7.13;76.86
40059;SHT31;25763;49.972;8.568;2023-02-11T16:43:36;7.11;76.98
40059;SHT31;25763;49.972;8.568;2023-02-11T16:46:02;7.10;76.92
40059;SHT31;25763;49.972;8.568;2023-02-11T16:48:28;7.07;76.93
40059;SHT31;25763;49.972;8.568;2023-02-11T16:50:53;7.03;77.08
40059;SHT31;25763;49.972;8.568;2023-02-11T16:53:22;7.00;77.35
40059;SHT31;25763;49.972;8.568;2023-02-11T16:55:49;7.03;77.36
40059;SHT31;25763;49.972;8.568;2023-02-11T16:58:14;7.00;77.42
40059;SHT31;25763;49.972;8.568;2023-02-11T17:00:40;6.99;77.48
40059;SHT31;25763;49.972;8.568;2023-02-11T17:03:13;6.99;77.52
40059;SHT31;25763;49.972;8.568;2023-02-11T17:05:39;6.96;77.54
40059;SHT31;25763;49.972;8.568;2023-02-11T17:08:05;6.96;77.69
40059;SHT31;25763;49.972;8.568;2023-02-11T17:10:30;6.95;77.67
40059;SHT31;25763;49.972;8.568;2023-02-11T17:12:56;6.93;77.79
40059;SHT31;25763;49.972;8.568;2023-02-11T17:15:22;6.93;77.80
40059;SHT31;25763;49.972;8.568;2023-02-11T17:17:47;6.95;77.81
40059;SHT31;25763;49.972;8.568;2023-02-11T17:20:13;6.97;77.70
40059;SHT31;25763;49.972;8.568;2023-02-11T17:22:40;6.95;77.81
40059;SHT31;25763;49.972;8.568;2023-02-11T17:25:05;6.95;77.89
40059;SHT31;25763;49.972;8.568;2023-02-11T17:27:31;6.92;77.88
40059;SHT31;25763;49.972;8.568;2023-02-11T17:29:56;6.93;77.80
40059;SHT31;25763;49.972;8.568;2023-02-11T17:32:22;6.93;78.03
40059;SHT31;25763;49.972;8.568;2023-02-11T17:34:47;6.92;77.94
40059;SHT31;25763;49.972;8.568;2023-02-11T17:37:13;6.91;77.93
40059;SHT31;25763;49.972;8.568;2023-02-11T17:39:38;6.93;77.96
40059;SHT31;25763;49.972;8.568;2023-02-11T17:42:05;6.92;77.94
40059;SHT31;25763;49.972;8.568;2023-02-11T17:44:31;6.92;77.93
40059;SHT31;25763;49.972;8.568;2023-02-11T17:46:57;6.93;77.94
40059;SHT31;25763;49.972;8.568;2023-02-11T17:49:22;6.92;77.89
40059;SHT31;25763;49.972;8.568;2023-02-11T17:51:47;6.93;77.90
40059;SHT31;25763;49.972;8.568;2023-02-11T17:54:16;6.96;77.76
40059;SHT31;25763;49.972;8.568;2023-02-11T17:56:42;6.97;77.71
40059;SHT31;25763;49.972;8.568;2023-02-11T17:59:09;7.00;77.75
40059;SHT31;25763;49.972;8.568;2023-02-11T18:01:36;7.01;77.62
40059;SHT31;25763;49.972;8.568;2023-02-11T18:04:03;7.00;77.73
40059;SHT31;25763;49.972;8.568;2023-02-11T18:06:28;7.00;77.72
40059;SHT31;25763;49.972;8.568;2023-02-11T18:08:55;7.04;77.65
40059;SHT31;25763;49.972;8.568;2023-02-11T18:11:22;6.99;77.77
40059;SHT31;25763;49.972;8.568;2023-02-11T18:13:50;6.95;77.91
40059;SHT31;25763;49.972;8.568;2023-02-11T18:16:19;6.88;78.08
40059;SHT31;25763;49.972;8.568;2023-02-11T18:18:45;6.91;78.16